createdAt,value
2018-07-27T00:00:39.141Z,25.67
2018-07-27T00:01:39.108Z,25.68
2018-07-27T00:02:39.097Z,25.69
2018-07-27T00:03:39.126Z,25.71
2018-07-27T00:04:39.144Z,25.72
2018-07-27T00:05:39.094Z,25.74
2018-07-27T00:06:39.132Z,25.76
2018-07-27T00:07:39.205Z,25.75
2018-07-27T00:08:39.119Z,25.76
2018-07-27T00:09:39.136Z,25.76
2018-07-27T00:10:39.173Z,25.77
2018-07-27T00:11:39.105Z,25.79
2018-07-27T00:12:39.110Z,25.8
2018-07-27T00:13:39.161Z,25.82
2018-07-27T00:14:39.115Z,25.82
2018-07-27T00:15:39.233Z,25.78
2018-07-27T00:16:39.151Z,25.76
2018-07-27T00:17:39.096Z,25.76
2018-07-27T00:18:39.290Z,25.76
2018-07-27T00:19:39.172Z,25.74
2018-07-27T00:20:39.163Z,25.77
2018-07-27T00:21:39.298Z,25.78
2018-07-27T00:22:39.176Z,25.74
2018-07-27T00:23:39.222Z,25.74
2018-07-27T00:24:39.133Z,25.74
2018-07-27T00:25:39.227Z,25.73
2018-07-27T00:26:39.162Z,25.66
2018-07-27T00:27:39.117Z,25.66
2018-07-27T00:28:39.161Z,25.66
2018-07-27T00:29:39.250Z,25.68
2018-07-27T00:30:39.145Z,25.67
2018-07-27T00:31:39.127Z,25.67
2018-07-27T00:32:39.150Z,25.67
2018-07-27T00:33:39.241Z,25.66
2018-07-27T00:34:39.192Z,25.63
2018-07-27T00:35:39.180Z,25.65
2018-07-27T00:36:39.168Z,25.61
2018-07-27T00:37:39.167Z,25.57
2018-07-27T00:38:39.162Z,25.53
2018-07-27T00:39:39.245Z,25.53
2018-07-27T00:40:39.147Z,25.56
2018-07-27T00:41:39.207Z,25.53
2018-07-27T00:42:39.277Z,25.51
2018-07-27T00:43:39.151Z,25.49
2018-07-27T00:44:39.337Z,25.5
2018-07-27T00:45:39.164Z,25.5
2018-07-27T00:46:39.164Z,25.49
2018-07-27T00:47:39.169Z,25.5
2018-07-27T00:48:39.173Z,25.47
2018-07-27T00:49:39.191Z,25.46
2018-07-27T00:50:39.158Z,25.38
2018-07-27T00:51:39.208Z,25.35
2018-07-27T00:52:39.157Z,25.36
2018-07-27T00:53:39.192Z,25.37
2018-07-27T00:54:39.149Z,25.38
2018-07-27T00:55:39.196Z,25.37
2018-07-27T00:56:39.202Z,25.34
2018-07-27T00:57:39.219Z,25.32
2018-07-27T00:58:39.221Z,25.31
2018-07-27T00:59:39.175Z,25.27
2018-07-27T01:00:39.199Z,25.26
2018-07-27T01:01:39.182Z,25.25
2018-07-27T01:02:39.165Z,25.25
2018-07-27T01:03:39.174Z,25.24
2018-07-27T01:04:39.224Z,25.25
2018-07-27T01:05:39.409Z,25.22
2018-07-27T01:06:39.212Z,25.18
2018-07-27T01:07:39.255Z,25.13
2018-07-27T01:08:39.219Z,25.14
2018-07-27T01:09:39.225Z,25.15
2018-07-27T01:10:39.230Z,25.09
2018-07-27T01:11:39.187Z,25.08
2018-07-27T01:12:39.202Z,25.08
2018-07-27T01:13:39.221Z,25.06
2018-07-27T01:14:39.197Z,25.04
2018-07-27T01:15:39.204Z,25.01
2018-07-27T01:16:39.176Z,25.01
2018-07-27T01:17:39.302Z,24.98
2018-07-27T01:18:39.264Z,24.97
2018-07-27T01:19:39.206Z,24.97
2018-07-27T01:20:39.235Z,24.93
2018-07-27T01:21:39.266Z,24.93
2018-07-27T01:22:39.239Z,24.91
2018-07-27T01:23:39.419Z,24.92
2018-07-27T01:24:39.258Z,24.9
2018-07-27T01:25:39.230Z,24.85
2018-07-27T01:26:39.255Z,24.85
2018-07-27T01:27:39.418Z,24.86
2018-07-27T01:28:39.248Z,24.86
2018-07-27T01:29:39.433Z,24.85
2018-07-27T01:30:39.201Z,24.86
2018-07-27T01:31:39.363Z,24.85
2018-07-27T01:32:39.303Z,24.85
2018-07-27T01:33:39.219Z,24.85
2018-07-27T01:34:39.403Z,24.85
2018-07-27T01:35:39.213Z,24.84
2018-07-27T01:36:39.231Z,24.84
2018-07-27T01:37:39.284Z,24.84
2018-07-27T01:38:39.252Z,24.85
2018-07-27T01:39:39.270Z,24.84
2018-07-27T01:40:39.261Z,24.84
2018-07-27T01:41:39.260Z,24.85
2018-07-27T01:42:39.279Z,24.85
2018-07-27T01:43:39.323Z,24.83
2018-07-27T01:44:39.445Z,24.77
2018-07-27T01:45:39.260Z,24.72
2018-07-27T01:46:39.287Z,24.71
2018-07-27T01:47:39.239Z,24.68
2018-07-27T01:48:39.353Z,24.67
2018-07-27T01:49:39.276Z,24.65
2018-07-27T01:50:39.336Z,24.62
2018-07-27T01:51:39.411Z,24.61
2018-07-27T01:52:39.252Z,24.59
2018-07-27T01:53:39.290Z,24.54
2018-07-27T01:54:39.351Z,24.5
2018-07-27T01:55:39.309Z,24.52
2018-07-27T01:56:39.542Z,24.5
2018-07-27T01:57:39.268Z,24.46
2018-07-27T01:58:39.292Z,24.46
2018-07-27T01:59:39.256Z,24.41
2018-07-27T02:00:39.288Z,24.39
2018-07-27T02:01:39.347Z,24.33
2018-07-27T02:02:39.276Z,24.33
2018-07-27T02:03:39.265Z,24.3
2018-07-27T02:04:39.288Z,24.29
2018-07-27T02:05:39.245Z,24.24
2018-07-27T02:06:39.259Z,24.22
2018-07-27T02:07:39.241Z,24.19
2018-07-27T02:08:39.254Z,24.16
2018-07-27T02:09:39.266Z,24.14
2018-07-27T02:10:39.259Z,24.1
2018-07-27T02:11:39.267Z,24.12
2018-07-27T02:12:39.255Z,24.09
2018-07-27T02:13:39.274Z,24.07
2018-07-27T02:14:39.282Z,24.08
2018-07-27T02:15:39.320Z,24.06
2018-07-27T02:16:39.301Z,24.03
2018-07-27T02:17:39.279Z,24.05
2018-07-27T02:18:39.278Z,23.98
2018-07-27T02:19:39.273Z,23.99
2018-07-27T02:20:39.291Z,23.96
2018-07-27T02:21:39.291Z,23.95
2018-07-27T02:22:39.289Z,23.9
2018-07-27T02:23:39.890Z,23.84
2018-07-27T02:24:39.390Z,23.85
2018-07-27T02:25:39.305Z,23.88
2018-07-27T02:26:39.461Z,23.85
2018-07-27T02:27:39.310Z,23.83
2018-07-27T02:28:39.279Z,23.86
2018-07-27T02:29:39.389Z,23.86
2018-07-27T02:30:39.321Z,23.87
2018-07-27T02:31:39.308Z,23.9
2018-07-27T02:32:39.528Z,23.9
2018-07-27T02:33:39.953Z,23.92
2018-07-27T02:34:39.324Z,23.95
2018-07-27T02:35:39.339Z,23.94
2018-07-27T02:36:39.329Z,23.96
2018-07-27T02:37:39.534Z,23.94
2018-07-27T02:38:39.297Z,23.91
2018-07-27T02:39:39.327Z,23.87
2018-07-27T02:40:39.298Z,23.83
2018-07-27T02:41:39.314Z,23.82
2018-07-27T02:42:39.339Z,23.82
2018-07-27T02:43:39.319Z,23.78
2018-07-27T02:44:39.387Z,23.74
2018-07-27T02:45:39.448Z,23.74
2018-07-27T02:46:39.428Z,23.74
2018-07-27T02:47:39.358Z,23.76
2018-07-27T02:48:39.378Z,23.77
2018-07-27T02:49:39.413Z,23.74
2018-07-27T02:50:39.333Z,23.74
2018-07-27T02:51:39.491Z,23.75
2018-07-27T02:52:39.480Z,23.74
2018-07-27T02:53:39.336Z,23.74
2018-07-27T02:54:39.364Z,23.75
2018-07-27T02:55:39.317Z,23.73
2018-07-27T02:56:39.360Z,23.72
2018-07-27T02:57:39.672Z,23.7
2018-07-27T02:58:39.391Z,23.68
2018-07-27T02:59:39.416Z,23.7
2018-07-27T03:00:39.535Z,23.68
2018-07-27T03:01:39.366Z,23.67
2018-07-27T03:02:39.381Z,23.68
2018-07-27T03:03:39.324Z,23.68
2018-07-27T03:04:39.450Z,23.64
2018-07-27T03:05:39.559Z,23.67
2018-07-27T03:06:39.364Z,23.65
2018-07-27T03:07:39.350Z,23.64
2018-07-27T03:08:39.350Z,23.64
2018-07-27T03:09:39.776Z,23.62
2018-07-27T03:10:39.410Z,23.6
2018-07-27T03:11:39.343Z,23.56
2018-07-27T03:12:39.398Z,23.56
2018-07-27T03:13:39.491Z,23.51
2018-07-27T03:14:39.568Z,23.4
2018-07-27T03:15:39.364Z,23.4
2018-07-27T03:16:39.358Z,23.41
2018-07-27T03:17:39.406Z,23.41
2018-07-27T03:18:39.394Z,23.37
2018-07-27T03:19:39.373Z,23.13
2018-07-27T03:20:39.376Z,23.17
2018-07-27T03:21:39.417Z,23.17
2018-07-27T03:22:39.370Z,23.12
2018-07-27T03:23:39.374Z,23.09
2018-07-27T03:24:39.529Z,23.06
2018-07-27T03:25:39.367Z,23.08
2018-07-27T03:26:39.344Z,23.05
2018-07-27T03:27:39.441Z,23.01
2018-07-27T03:28:39.360Z,23.02
2018-07-27T03:29:39.454Z,22.97
2018-07-27T03:30:39.412Z,22.98
2018-07-27T03:31:39.390Z,22.96
2018-07-27T03:32:39.356Z,22.95
2018-07-27T03:33:39.419Z,22.94
2018-07-27T03:34:39.414Z,22.9
2018-07-27T03:35:39.380Z,22.87
2018-07-27T03:36:39.389Z,22.87
2018-07-27T03:37:39.368Z,22.86
2018-07-27T03:38:39.409Z,22.81
2018-07-27T03:39:39.379Z,22.73
2018-07-27T03:40:39.486Z,22.73
2018-07-27T03:41:39.412Z,22.71
2018-07-27T03:42:39.450Z,22.68
2018-07-27T03:43:39.659Z,22.68
2018-07-27T03:44:39.389Z,22.65
2018-07-27T03:45:39.383Z,22.61
2018-07-27T03:46:39.427Z,22.59
2018-07-27T03:47:39.459Z,22.52
2018-07-27T03:48:39.624Z,22.35
2018-07-27T03:49:39.409Z,22.29
2018-07-27T03:50:39.418Z,22.26
2018-07-27T03:51:39.464Z,22.21
2018-07-27T03:52:39.440Z,22.18
2018-07-27T03:53:39.425Z,22.16
2018-07-27T03:54:39.379Z,22.08
2018-07-27T03:55:39.401Z,22.12
2018-07-27T03:56:39.427Z,22.1
2018-07-27T03:57:39.472Z,22.13
2018-07-27T03:58:39.432Z,22.14
2018-07-27T03:59:39.465Z,22.14
2018-07-27T04:00:39.633Z,22.17
2018-07-27T04:01:39.388Z,22.17
2018-07-27T04:02:39.477Z,22.17
2018-07-27T04:03:39.593Z,22.16
2018-07-27T04:04:39.388Z,22.12
2018-07-27T04:05:39.479Z,22.13
2018-07-27T04:06:39.405Z,22.12
2018-07-27T04:07:39.485Z,22.04
2018-07-27T04:08:39.991Z,22.1
2018-07-27T04:09:39.425Z,22.08
2018-07-27T04:10:39.426Z,22.1
2018-07-27T04:11:39.498Z,22.11
2018-07-27T04:12:39.396Z,22.13
2018-07-27T04:13:39.458Z,22.13
2018-07-27T04:14:39.500Z,22.13
2018-07-27T04:15:39.429Z,22.14
2018-07-27T04:16:39.599Z,22.16
2018-07-27T04:17:39.432Z,22.16
2018-07-27T04:18:39.457Z,22.11
2018-07-27T04:19:39.498Z,22.12
2018-07-27T04:20:39.463Z,22.13
2018-07-27T04:21:39.514Z,22.16
2018-07-27T04:22:39.547Z,22.17
2018-07-27T04:23:39.452Z,22.16
2018-07-27T04:24:39.676Z,22.17
2018-07-27T04:25:39.425Z,22.14
2018-07-27T04:26:39.458Z,22.12
2018-07-27T04:27:39.436Z,22.12
2018-07-27T04:28:39.566Z,22.13
2018-07-27T04:29:39.490Z,22.13
2018-07-27T04:30:39.483Z,22.12
2018-07-27T04:31:39.514Z,22.04
2018-07-27T04:32:39.454Z,22.06
2018-07-27T04:33:39.434Z,22.07
2018-07-27T04:34:39.481Z,22.03
2018-07-27T04:35:39.906Z,22.04
2018-07-27T04:36:39.436Z,22.05
2018-07-27T04:37:39.485Z,22
2018-07-27T04:38:39.471Z,22
2018-07-27T04:39:39.444Z,22
2018-07-27T04:40:39.474Z,22.02
2018-07-27T04:41:39.477Z,22
2018-07-27T04:42:39.455Z,22.03
2018-07-27T04:43:39.488Z,22.03
2018-07-27T04:44:39.509Z,22.04
2018-07-27T04:45:39.477Z,22.05
2018-07-27T04:46:39.496Z,22.07
2018-07-27T04:47:39.464Z,21.94
2018-07-27T04:48:39.500Z,21.94
2018-07-27T04:49:39.532Z,22.01
2018-07-27T04:50:39.477Z,22.02
2018-07-27T04:51:39.477Z,22.03
2018-07-27T04:52:39.471Z,22.05
2018-07-27T04:53:39.558Z,22.09
2018-07-27T04:54:39.522Z,22.13
2018-07-27T04:55:39.478Z,22.17
2018-07-27T04:56:40.975Z,22.17
2018-07-27T04:57:39.567Z,22.2
2018-07-27T04:58:39.516Z,22.23
2018-07-27T04:59:39.593Z,22.22
2018-07-27T05:00:39.500Z,22.14
2018-07-27T05:01:39.622Z,22.17
2018-07-27T05:02:39.565Z,22.21
2018-07-27T05:03:39.529Z,22.22
2018-07-27T05:04:39.975Z,22.24
2018-07-27T05:05:39.544Z,22.27
2018-07-27T05:06:39.506Z,22.28
2018-07-27T05:07:39.659Z,22.29
2018-07-27T05:08:39.565Z,22.3
2018-07-27T05:09:39.553Z,22.31
2018-07-27T05:10:39.518Z,22.32
2018-07-27T05:11:39.546Z,22.32
2018-07-27T05:12:39.530Z,22.33
2018-07-27T05:13:39.494Z,22.37
2018-07-27T05:14:39.545Z,22.38
2018-07-27T05:15:39.508Z,22.41
2018-07-27T05:16:39.650Z,22.47
2018-07-27T05:17:39.489Z,22.48
2018-07-27T05:18:39.641Z,22.49
2018-07-27T05:19:39.517Z,22.51
2018-07-27T05:20:39.575Z,22.54
2018-07-27T05:21:39.527Z,22.57
2018-07-27T05:22:39.526Z,22.58
2018-07-27T05:23:39.543Z,22.6
2018-07-27T05:24:40.253Z,22.63
2018-07-27T05:25:39.622Z,22.65
2018-07-27T05:26:39.593Z,22.67
2018-07-27T05:27:39.540Z,22.73
2018-07-27T05:28:39.806Z,22.76
2018-07-27T05:29:39.608Z,22.8
2018-07-27T05:30:39.578Z,22.84
2018-07-27T05:31:39.606Z,22.88
2018-07-27T05:32:39.560Z,22.88
2018-07-27T05:33:39.547Z,22.9
2018-07-27T05:34:39.709Z,22.94
2018-07-27T05:35:39.585Z,22.95
2018-07-27T05:36:39.558Z,22.98
2018-07-27T05:37:39.650Z,23
2018-07-27T05:38:39.828Z,23.05
2018-07-27T05:39:39.683Z,23.07
2018-07-27T05:40:39.564Z,23.11
2018-07-27T05:41:39.551Z,23.12
2018-07-27T05:42:39.556Z,23.14
2018-07-27T05:43:39.572Z,23.17
2018-07-27T05:44:39.581Z,23.19
2018-07-27T05:45:39.651Z,23.21
2018-07-27T05:46:39.615Z,23.22
2018-07-27T05:47:39.572Z,23.26
2018-07-27T05:48:40.026Z,23.28
2018-07-27T05:49:39.725Z,23.31
2018-07-27T05:50:39.546Z,23.32
2018-07-27T05:51:39.644Z,23.33
2018-07-27T05:52:39.990Z,23.37
2018-07-27T05:53:39.616Z,23.39
2018-07-27T05:54:39.564Z,23.4
2018-07-27T05:55:39.596Z,23.43
2018-07-27T05:56:39.621Z,23.44
2018-07-27T05:57:39.567Z,23.42
2018-07-27T05:58:39.696Z,23.47
2018-07-27T05:59:39.614Z,23.49
2018-07-27T06:00:39.603Z,23.51
2018-07-27T06:01:39.614Z,23.55
2018-07-27T06:02:40.063Z,23.57
2018-07-27T06:03:39.636Z,23.61
2018-07-27T06:04:39.623Z,23.64
2018-07-27T06:05:39.567Z,23.66
2018-07-27T06:06:39.599Z,23.71
2018-07-27T06:07:39.588Z,23.71
2018-07-27T06:08:39.966Z,23.74
2018-07-27T06:09:39.581Z,23.76
2018-07-27T06:10:39.599Z,23.79
2018-07-27T06:11:39.631Z,23.81
2018-07-27T06:12:39.645Z,23.85
2018-07-27T06:13:39.648Z,23.87
2018-07-27T06:14:39.631Z,23.88
2018-07-27T06:15:39.685Z,23.9
2018-07-27T06:16:39.616Z,23.91
2018-07-27T06:17:39.596Z,23.96
2018-07-27T06:18:39.617Z,23.98
2018-07-27T06:19:39.825Z,24.01
2018-07-27T06:20:39.625Z,24.03
2018-07-27T06:21:39.632Z,24.05
2018-07-27T06:22:39.595Z,24.08
2018-07-27T06:23:39.894Z,24.11
2018-07-27T06:24:39.713Z,24.13
2018-07-27T06:25:40.209Z,24.15
2018-07-27T06:26:40.014Z,24.18
2018-07-27T06:27:39.750Z,24.2
2018-07-27T06:28:39.703Z,24.23
2018-07-27T06:29:39.797Z,24.25
2018-07-27T06:30:39.626Z,24.27
2018-07-27T06:31:39.688Z,24.3
2018-07-27T06:32:40.253Z,24.32
2018-07-27T06:33:39.624Z,24.34
2018-07-27T06:34:39.651Z,24.37
2018-07-27T06:35:39.611Z,24.38
2018-07-27T06:36:39.732Z,24.4
2018-07-27T06:37:39.645Z,24.43
2018-07-27T06:38:39.834Z,24.45
2018-07-27T06:39:39.652Z,24.45
2018-07-27T06:40:39.664Z,24.46
2018-07-27T06:41:39.654Z,24.47
2018-07-27T06:42:39.774Z,24.46
2018-07-27T06:43:39.678Z,24.42
2018-07-27T06:44:39.814Z,24.43
2018-07-27T06:45:39.660Z,24.44
2018-07-27T06:46:39.670Z,24.47
2018-07-27T06:47:39.655Z,24.5
2018-07-27T06:48:39.650Z,24.54
2018-07-27T06:49:39.658Z,24.57
2018-07-27T06:50:39.738Z,24.61
2018-07-27T06:51:39.666Z,24.64
2018-07-27T06:52:39.672Z,24.67
2018-07-27T06:53:39.726Z,24.66
2018-07-27T06:54:39.678Z,24.69
2018-07-27T06:55:39.760Z,24.7
2018-07-27T06:56:39.791Z,24.74
2018-07-27T06:57:39.719Z,24.77
2018-07-27T06:58:39.709Z,24.78
2018-07-27T06:59:39.625Z,24.82
2018-07-27T07:00:39.770Z,24.87
2018-07-27T07:01:39.658Z,24.91
2018-07-27T07:02:39.633Z,24.93
2018-07-27T07:03:39.737Z,24.94
2018-07-27T07:04:39.651Z,24.95
2018-07-27T07:05:39.725Z,24.99
2018-07-27T07:06:39.664Z,25.04
2018-07-27T07:07:39.711Z,25.06
2018-07-27T07:08:39.652Z,25.11
2018-07-27T07:09:39.639Z,25.13
2018-07-27T07:10:39.664Z,25.17
2018-07-27T07:11:39.639Z,25.2
2018-07-27T07:12:39.644Z,25.2
2018-07-27T07:13:39.677Z,25.24
2018-07-27T07:14:39.687Z,25.26
2018-07-27T07:15:39.675Z,25.29
2018-07-27T07:16:41.936Z,25.36
2018-07-27T07:17:39.628Z,25.38
2018-07-27T07:18:39.681Z,25.41
2018-07-27T07:19:39.674Z,25.49
2018-07-27T07:20:39.689Z,25.52
2018-07-27T07:21:39.693Z,25.52
2018-07-27T07:22:39.659Z,25.56
2018-07-27T07:23:39.675Z,25.59
2018-07-27T07:24:39.675Z,25.61
2018-07-27T07:25:41.994Z,25.65
2018-07-27T07:26:39.673Z,25.69
2018-07-27T07:27:39.752Z,25.7
2018-07-27T07:28:39.673Z,25.74
2018-07-27T07:29:39.657Z,25.76
2018-07-27T07:30:39.661Z,25.78
2018-07-27T07:31:39.670Z,25.83
2018-07-27T07:32:39.735Z,25.83
2018-07-27T07:33:39.715Z,25.87
2018-07-27T07:34:39.652Z,25.91
2018-07-27T07:35:39.661Z,25.95
2018-07-27T07:36:39.767Z,26.01
2018-07-27T07:37:39.738Z,25.99
2018-07-27T07:38:39.696Z,26.01
2018-07-27T07:39:39.784Z,26.06
2018-07-27T07:40:39.762Z,26.07
2018-07-27T07:41:39.693Z,26.08
2018-07-27T07:42:39.831Z,26.14
2018-07-27T07:43:39.895Z,26.17
2018-07-27T07:44:39.728Z,26.2
2018-07-27T07:45:44.804Z,26.24
2018-07-27T07:46:39.702Z,26.29
2018-07-27T07:47:39.737Z,26.32
2018-07-27T07:48:39.776Z,26.37
2018-07-27T07:49:39.682Z,26.37
2018-07-27T07:50:39.706Z,26.42
2018-07-27T07:51:39.710Z,26.43
2018-07-27T07:52:39.730Z,26.45
2018-07-27T07:53:39.740Z,26.5
2018-07-27T07:54:39.702Z,26.56
2018-07-27T07:55:39.723Z,26.56
2018-07-27T07:56:39.818Z,26.61
2018-07-27T07:57:39.699Z,26.64
2018-07-27T07:58:40.183Z,26.68
2018-07-27T07:59:39.703Z,26.72
2018-07-27T08:00:39.709Z,26.77
2018-07-27T08:01:39.707Z,26.81
2018-07-27T08:02:39.842Z,26.8
2018-07-27T08:03:39.729Z,26.81
2018-07-27T08:04:39.830Z,26.86
2018-07-27T08:05:40.170Z,26.88
2018-07-27T08:06:39.851Z,26.89
2018-07-27T08:07:39.740Z,27
2018-07-27T08:08:39.852Z,27
2018-07-27T08:09:39.777Z,27
2018-07-27T08:10:39.855Z,26.97
2018-07-27T08:11:39.810Z,27
2018-07-27T08:12:39.724Z,27.05
2018-07-27T08:13:39.730Z,27.06
2018-07-27T08:14:39.717Z,27.08
2018-07-27T08:15:39.844Z,27.11
2018-07-27T08:16:39.748Z,27.15
2018-07-27T08:17:39.872Z,27.2
2018-07-27T08:18:39.732Z,27.23
2018-07-27T08:19:39.758Z,27.26
2018-07-27T08:20:39.755Z,27.31
2018-07-27T08:21:39.888Z,27.36
2018-07-27T08:22:39.748Z,27.39
2018-07-27T08:23:39.813Z,27.43
2018-07-27T08:24:39.715Z,27.48
2018-07-27T08:25:39.790Z,27.51
2018-07-27T08:26:39.754Z,27.55
2018-07-27T08:27:39.750Z,27.56
2018-07-27T08:28:39.769Z,27.56
2018-07-27T08:29:39.776Z,27.63
2018-07-27T08:30:39.756Z,27.67
2018-07-27T08:31:39.775Z,27.69
2018-07-27T08:32:39.797Z,27.72
2018-07-27T08:33:39.740Z,27.73
2018-07-27T08:34:39.749Z,27.74
2018-07-27T08:35:39.826Z,27.76
2018-07-27T08:36:39.749Z,27.77
2018-07-27T08:37:39.804Z,27.78
2018-07-27T08:38:39.762Z,27.81
2018-07-27T08:39:40.334Z,27.84
2018-07-27T08:40:39.796Z,27.86
2018-07-27T08:41:39.766Z,27.87
2018-07-27T08:42:40.012Z,27.89
2018-07-27T08:43:39.797Z,27.91
2018-07-27T08:44:39.802Z,27.92
2018-07-27T08:45:39.748Z,27.94
2018-07-27T08:46:39.801Z,28.01
2018-07-27T08:47:40.071Z,27.99
2018-07-27T08:48:40.041Z,27.99
2018-07-27T08:49:39.752Z,28.05
2018-07-27T08:50:39.776Z,28.07
2018-07-27T08:51:39.790Z,28.1
2018-07-27T08:52:39.772Z,28.15
2018-07-27T08:53:39.890Z,28.19
2018-07-27T08:54:39.786Z,28.24
2018-07-27T08:55:39.876Z,28.25
2018-07-27T08:56:39.844Z,28.28
2018-07-27T08:57:39.785Z,28.31
2018-07-27T08:58:40.010Z,28.32
2018-07-27T08:59:39.817Z,28.33
2018-07-27T09:00:39.923Z,28.36
2018-07-27T09:01:39.837Z,28.33
2018-07-27T09:02:39.809Z,28.3
2018-07-27T09:03:39.824Z,28.34
2018-07-27T09:04:39.816Z,28.37
2018-07-27T09:05:39.823Z,28.41
2018-07-27T09:06:39.789Z,28.43
2018-07-27T09:07:39.861Z,28.44
2018-07-27T09:08:40.113Z,28.42
2018-07-27T09:09:39.840Z,28.46
2018-07-27T09:10:39.844Z,28.48
2018-07-27T09:11:39.893Z,28.52
2018-07-27T09:12:39.800Z,28.57
2018-07-27T09:13:39.950Z,28.63
2018-07-27T09:14:39.857Z,28.71
2018-07-27T09:15:39.854Z,28.76
2018-07-27T09:16:39.884Z,28.78
2018-07-27T09:17:39.863Z,28.79
2018-07-27T09:18:39.808Z,28.78
2018-07-27T09:19:39.877Z,28.83
2018-07-27T09:20:39.807Z,28.91
2018-07-27T09:21:40.158Z,28.96
2018-07-27T09:22:39.821Z,28.99
2018-07-27T09:23:40.035Z,29.02
2018-07-27T09:24:42.043Z,29.06
2018-07-27T09:25:39.888Z,29.09
2018-07-27T09:26:39.817Z,29.13
2018-07-27T09:27:39.884Z,29.17
2018-07-27T09:28:39.870Z,29.28
2018-07-27T09:29:39.801Z,29.26
2018-07-27T09:30:39.903Z,29.29
2018-07-27T09:31:39.835Z,29.32
2018-07-27T09:32:39.823Z,29.33
2018-07-27T09:33:39.813Z,29.37
2018-07-27T09:34:40.234Z,29.38
2018-07-27T09:35:40.021Z,29.4
2018-07-27T09:36:39.831Z,29.45
2018-07-27T09:37:39.952Z,29.5
2018-07-27T09:38:39.870Z,29.53
2018-07-27T09:39:39.945Z,29.56
2018-07-27T09:40:39.823Z,29.64
2018-07-27T09:41:39.847Z,29.66
2018-07-27T09:42:39.852Z,29.68
2018-07-27T09:43:39.870Z,29.7
2018-07-27T09:44:39.829Z,29.75
2018-07-27T09:45:39.809Z,29.76
2018-07-27T09:46:40.785Z,29.8
2018-07-27T09:47:39.822Z,29.82
2018-07-27T09:48:40.128Z,29.89
2018-07-27T09:49:39.863Z,29.88
2018-07-27T09:50:39.852Z,29.93
2018-07-27T09:51:40.629Z,29.94
2018-07-27T09:52:39.870Z,29.98
2018-07-27T09:53:40.431Z,29.95
2018-07-27T09:54:39.858Z,30
2018-07-27T09:55:39.876Z,30.01
2018-07-27T09:56:39.862Z,30.04
2018-07-27T09:57:39.885Z,30.08
2018-07-27T09:58:39.856Z,30.09
2018-07-27T09:59:38.104Z,30.15
2018-07-27T10:00:38.132Z,30.2
2018-07-27T10:01:38.181Z,30.22
2018-07-27T10:02:38.802Z,30.24
2018-07-27T10:03:38.089Z,30.22
2018-07-27T10:04:38.224Z,30.26
2018-07-27T10:05:38.162Z,30.28
2018-07-27T10:06:38.306Z,30.28
2018-07-27T10:07:38.159Z,30.35
2018-07-27T10:08:38.162Z,30.37
2018-07-27T10:09:38.147Z,30.48
2018-07-27T10:10:38.534Z,30.46
2018-07-27T10:11:38.105Z,30.44
2018-07-27T10:12:38.287Z,30.44
2018-07-27T10:13:38.128Z,30.45
2018-07-27T10:14:38.233Z,30.49
2018-07-27T10:15:38.184Z,30.52
2018-07-27T10:16:38.572Z,30.53
2018-07-27T10:17:38.255Z,30.59
2018-07-27T10:18:38.106Z,30.62
2018-07-27T10:19:38.521Z,30.67
2018-07-27T10:20:38.274Z,30.67
2018-07-27T10:21:38.517Z,30.71
2018-07-27T10:22:38.173Z,30.81
2018-07-27T10:23:38.180Z,30.77
2018-07-27T10:24:38.162Z,30.82
2018-07-27T10:25:38.262Z,30.82
2018-07-27T10:26:38.121Z,30.87
2018-07-27T10:27:38.152Z,30.9
2018-07-27T10:28:38.145Z,30.95
2018-07-27T10:29:38.101Z,30.97
2018-07-27T10:30:38.138Z,31
2018-07-27T10:31:38.134Z,31.03
2018-07-27T10:32:38.141Z,31.06
2018-07-27T10:33:38.235Z,31.1
2018-07-27T10:34:38.186Z,31.09
2018-07-27T10:35:38.182Z,31.13
2018-07-27T10:36:38.611Z,31.14
2018-07-27T10:37:38.204Z,31.17
2018-07-27T10:38:38.937Z,31.21
2018-07-27T10:39:38.203Z,31.2
2018-07-27T10:40:38.206Z,31.19
2018-07-27T10:41:38.126Z,31.19
2018-07-27T10:42:38.221Z,31.2
2018-07-27T10:43:38.112Z,31.25
2018-07-27T10:44:38.161Z,31.29
2018-07-27T10:45:38.178Z,31.34
2018-07-27T10:46:38.110Z,31.36
2018-07-27T10:47:38.116Z,31.48
2018-07-27T10:48:38.250Z,31.45
2018-07-27T10:49:38.128Z,31.45
2018-07-27T10:50:38.534Z,31.47
2018-07-27T10:51:38.143Z,31.48
2018-07-27T10:52:38.162Z,31.44
2018-07-27T10:53:42.003Z,31.46
2018-07-27T10:54:38.537Z,31.51
2018-07-27T10:55:38.133Z,31.54
2018-07-27T10:56:38.115Z,31.52
2018-07-27T10:57:38.807Z,31.5
2018-07-27T10:58:38.153Z,31.41
2018-07-27T10:59:38.128Z,31.41
2018-07-27T11:00:38.093Z,31.47
2018-07-27T11:01:38.117Z,31.52
2018-07-27T11:02:38.490Z,31.62
2018-07-27T11:03:38.151Z,31.66
2018-07-27T11:04:38.110Z,31.71
2018-07-27T11:05:38.140Z,31.72
2018-07-27T11:06:38.145Z,31.73
2018-07-27T11:07:38.188Z,31.72
2018-07-27T11:08:38.351Z,31.71
2018-07-27T11:09:38.269Z,31.78
2018-07-27T11:10:38.128Z,31.79
2018-07-27T11:11:38.132Z,31.79
2018-07-27T11:12:38.226Z,31.79
2018-07-27T11:13:38.105Z,31.78
2018-07-27T11:14:38.158Z,31.85
2018-07-27T11:15:38.102Z,31.84
2018-07-27T11:16:38.154Z,31.87
2018-07-27T11:17:38.979Z,31.91
2018-07-27T11:18:38.254Z,31.86
2018-07-27T11:19:38.275Z,31.87
2018-07-27T11:20:38.135Z,31.91
2018-07-27T11:21:38.186Z,31.91
2018-07-27T11:22:38.101Z,31.92
2018-07-27T11:23:38.142Z,31.95
2018-07-27T11:24:38.117Z,31.95
2018-07-27T11:25:38.749Z,31.99
2018-07-27T11:26:38.176Z,31.99
2018-07-27T11:27:38.154Z,31.95
2018-07-27T11:28:38.151Z,31.99
2018-07-27T11:29:38.140Z,32.06
2018-07-27T11:30:38.168Z,32.12
2018-07-27T11:31:38.168Z,32.12
2018-07-27T11:32:38.143Z,32.17
2018-07-27T11:33:38.119Z,32.18
2018-07-27T11:34:38.179Z,32.23
2018-07-27T11:35:38.103Z,32.24
2018-07-27T11:36:38.081Z,32.07
2018-07-27T11:37:38.163Z,32.03
2018-07-27T11:38:38.146Z,32.08
2018-07-27T11:39:38.088Z,32.3
2018-07-27T11:40:38.331Z,32.52
2018-07-27T11:41:38.133Z,32.49
2018-07-27T11:42:38.720Z,32.54
2018-07-27T11:43:38.135Z,32.61
2018-07-27T11:44:38.225Z,32.64
2018-07-27T11:45:38.269Z,32.74
2018-07-27T11:46:38.301Z,32.77
2018-07-27T11:47:38.133Z,32.77
2018-07-27T11:48:38.116Z,32.8
2018-07-27T11:49:38.097Z,32.84
2018-07-27T11:50:38.105Z,32.85
2018-07-27T11:51:38.108Z,32.86
2018-07-27T11:52:38.111Z,32.91
2018-07-27T11:53:38.139Z,32.92
2018-07-27T11:54:38.242Z,32.92
2018-07-27T11:55:38.242Z,32.94
2018-07-27T11:56:38.206Z,32.93
2018-07-27T11:57:38.253Z,32.91
2018-07-27T11:58:38.472Z,32.95
2018-07-27T11:59:38.265Z,32.94
2018-07-27T12:00:38.471Z,32.96
2018-07-27T12:01:39.303Z,33.03
2018-07-27T12:02:38.358Z,33.07
2018-07-27T12:03:38.275Z,33.09
2018-07-27T12:04:38.305Z,33.12
2018-07-27T12:05:38.184Z,33.02
2018-07-27T12:06:38.652Z,33.04
2018-07-27T12:07:38.198Z,33.11
2018-07-27T12:08:38.396Z,33.16
2018-07-27T12:09:38.230Z,33.2
2018-07-27T12:10:38.304Z,33.03
2018-07-27T12:11:39.363Z,32.99
2018-07-27T12:12:38.259Z,32.87
2018-07-27T12:13:38.403Z,32.94
2018-07-27T12:14:41.376Z,32.88
2018-07-27T12:15:38.259Z,32.95
2018-07-27T12:16:38.180Z,32.98
2018-07-27T12:17:38.137Z,33.03
2018-07-27T12:18:38.271Z,33.15
2018-07-27T12:19:38.177Z,33.22
2018-07-27T12:20:38.925Z,33.24
2018-07-27T12:21:41.827Z,33.28
2018-07-27T12:22:38.116Z,33.33
2018-07-27T12:23:38.219Z,33.39
2018-07-27T12:24:38.206Z,33.43
2018-07-27T12:25:38.078Z,33.4
2018-07-27T12:26:38.339Z,33.41
2018-07-27T12:27:38.144Z,33.41
2018-07-27T12:28:38.095Z,33.39
2018-07-27T12:29:38.164Z,33.4
2018-07-27T12:30:38.569Z,33.37
2018-07-27T12:31:38.108Z,33.44
2018-07-27T12:32:38.648Z,33.53
2018-07-27T12:33:38.096Z,33.54
2018-07-27T12:34:38.277Z,33.6
2018-07-27T12:35:38.095Z,33.63
2018-07-27T12:36:38.134Z,33.61
2018-07-27T12:37:38.607Z,33.71
2018-07-27T12:38:38.249Z,33.82
2018-07-27T12:39:38.169Z,33.83
2018-07-27T12:40:38.359Z,33.89
2018-07-27T12:41:38.096Z,33.95
2018-07-27T12:42:38.683Z,34.01
2018-07-27T12:43:38.101Z,34.02
2018-07-27T12:44:38.451Z,34.07
2018-07-27T12:45:38.148Z,34.16
2018-07-27T12:46:38.361Z,34.18
2018-07-27T12:47:38.241Z,34.24
2018-07-27T12:48:38.274Z,34.2
2018-07-27T12:49:38.223Z,33.98
2018-07-27T12:50:38.274Z,33.8
2018-07-27T12:51:38.199Z,33.81
2018-07-27T12:52:38.119Z,33.73
2018-07-27T12:53:38.169Z,33.52
2018-07-27T12:54:38.168Z,33.58
2018-07-27T12:55:38.285Z,33.59